Time;durP1;ratioP1;P1;durP2;ratioP2;P2;SDS_P1;SDS_P2;PMS_P1;PMS_P2;Temp;Humidity;BMP_temperature;BMP_pressure;BME280_temperature;BME280_humidity;BME280_pressure;Samples;Min_cycle;Max_cycle;Signal;HPM_P1;HPM_P2
2023/08/19 00:00:27;;;;;;;7.30;6.70;;;22.70;99.90;;;;;;5017966;28;20458;-81
2023/08/19 00:02:55;;;;;;;7.10;6.40;;;22.60;99.90;;;;;;5017902;28;20448;-80
2023/08/19 00:05:22;;;;;;;7.33;6.63;;;22.60;99.90;;;;;;5017727;28;20488;-80
2023/08/19 00:07:49;;;;;;;7.93;6.37;;;22.60;99.90;;;;;;5014208;28;20945;-80
2023/08/19 00:10:16;;;;;;;7.67;6.70;;;22.60;99.90;;;;;;5017811;28;20516;-80
2023/08/19 00:12:42;;;;;;;8.63;7.40;;;22.50;99.90;;;;;;5017113;28;20491;-82
2023/08/19 00:15:11;;;;;;;12.00;6.80;;;22.50;99.90;;;;;;5016712;28;20509;-81
2023/08/19 00:17:38;;;;;;;10.17;7.00;;;22.50;99.90;;;;;;5016850;28;20532;-80
2023/08/19 00:20:06;;;;;;;7.33;6.63;;;22.50;99.90;;;;;;5016939;28;20459;-81
2023/08/19 00:22:33;;;;;;;6.00;5.50;;;22.40;99.90;;;;;;5016919;28;20956;-81
2023/08/19 00:25:00;;;;;;;7.70;6.70;;;22.40;99.90;;;;;;5017583;28;20461;-81
2023/08/19 00:27:27;;;;;;;10.57;6.57;;;22.40;99.90;;;;;;5016619;28;20453;-82
2023/08/19 00:29:54;;;;;;;7.10;6.27;;;22.40;99.90;;;;;;5017037;28;20450;-79
2023/08/19 00:32:23;;;;;;;6.83;5.67;;;22.40;99.90;;;;;;5017297;28;20500;-80
2023/08/19 00:34:50;;;;;;;6.43;5.80;;;22.40;99.90;;;;;;5017271;28;20449;-82
2023/08/19 00:37:16;;;;;;;7.13;6.00;;;22.40;99.90;;;;;;5016481;28;20450;-81
2023/08/19 00:39:43;;;;;;;6.73;5.87;;;22.40;99.90;;;;;;5017095;28;21065;-81
2023/08/19 00:42:10;;;;;;;9.20;6.67;;;22.40;99.90;;;;;;5017096;28;20456;-81
2023/08/19 00:44:37;;;;;;;7.70;6.33;;;22.40;99.90;;;;;;5016219;28;20460;-81
2023/08/19 00:47:04;;;;;;;6.50;5.90;;;22.40;99.90;;;;;;5016366;28;20472;-80
2023/08/19 00:49:33;;;;;;;14.10;6.30;;;22.40;99.90;;;;;;5016310;28;20442;-79
2023/08/19 00:52:02;;;;;;;10.40;6.50;;;22.40;99.90;;;;;;5015852;28;20536;-78
2023/08/19 00:54:29;;;;;;;8.70;6.00;;;22.40;99.90;;;;;;5014812;28;20488;-78
2023/08/19 00:56:56;;;;;;;7.03;6.43;;;22.40;99.90;;;;;;5015461;28;21064;-78
2023/08/19 00:59:23;;;;;;;6.77;6.03;;;22.40;99.90;;;;;;5016017;28;20477;-79
2023/08/19 01:01:50;;;;;;;6.17;5.57;;;22.40;99.90;;;;;;5015756;28;20450;-81
2023/08/19 01:04:16;;;;;;;6.83;6.13;;;22.40;99.90;;;;;;5015973;28;20453;-78
2023/08/19 01:06:51;;;;;;;12.17;7.07;;;22.40;99.90;;;;;;5015582;28;20990;-82
2023/08/19 01:09:38;;;;;;;6.27;5.60;;;22.40;99.90;;;;;;5015419;28;20449;-78
2023/08/19 01:12:22;;;;;;;7.67;6.40;;;22.30;99.90;;;;;;5015594;28;20962;-78
2023/08/19 01:15:02;;;;;;;7.50;5.87;;;22.30;99.90;;;;;;5015775;28;20452;-79
2023/08/19 01:17:31;;;;;;;6.60;5.80;;;22.30;99.90;;;;;;5050239;22;20530;-82
2023/08/19 01:19:58;;;;;;;8.43;5.53;;;22.30;99.90;;;;;;5032462;28;20448;-83
2023/08/19 01:22:35;;;;;;;7.47;6.37;;;22.30;99.90;;;;;;5038906;28;20883;-82
2023/08/19 01:25:04;;;;;;;6.80;6.20;;;22.30;99.90;;;;;;5039033;28;20451;-83
2023/08/19 01:27:31;;;;;;;10.27;6.30;;;22.30;99.90;;;;;;5037760;28;21027;-84
2023/08/19 01:29:58;;;;;;;7.40;6.57;;;22.30;99.90;;;;;;5038928;28;20455;-83
2023/08/19 01:32:25;;;;;;;7.67;6.23;;;22.20;99.90;;;;;;5026657;28;20452;-84
2023/08/19 01:34:53;;;;;;;7.23;6.20;;;22.20;99.90;;;;;;5038583;28;20444;-83
2023/08/19 01:37:29;;;;;;;7.93;6.00;;;22.20;99.90;;;;;;5038397;28;20477;-83
2023/08/19 01:39:57;;;;;;;9.03;6.10;;;22.20;99.90;;;;;;5039211;28;20539;-84
2023/08/19 01:42:26;;;;;;;7.50;6.80;;;22.20;99.90;;;;;;5038581;28;20441;-83
2023/08/19 01:44:54;;;;;;;10.80;6.03;;;22.20;99.90;;;;;;5039330;28;20459;-83
2023/08/19 01:47:21;;;;;;;7.20;5.80;;;22.20;99.90;;;;;;5038010;28;20472;-83
2023/08/19 01:49:48;;;;;;;5.87;5.03;;;22.10;99.90;;;;;;5029795;28;20458;-83
2023/08/19 01:52:15;;;;;;;11.13;7.67;;;22.10;99.90;;;;;;5039235;28;20444;-83
2023/08/19 01:54:42;;;;;;;6.90;6.30;;;22.10;99.90;;;;;;5038658;28;20492;-84
2023/08/19 01:57:09;;;;;;;7.47;6.03;;;22.10;99.90;;;;;;5038253;28;20479;-82
2023/08/19 01:59:37;;;;;;;8.67;5.90;;;22.10;99.90;;;;;;5029153;28;20552;-83
2023/08/19 02:02:04;;;;;;;5.97;5.40;;;22.00;99.90;;;;;;5018371;28;20464;-84
2023/08/19 02:04:31;;;;;;;8.90;6.07;;;22.00;99.90;;;;;;5018446;28;20450;-83
2023/08/19 02:06:58;;;;;;;6.77;6.17;;;22.00;99.90;;;;;;5019154;28;20868;-83
2023/08/19 02:09:25;;;;;;;7.70;6.03;;;22.00;99.90;;;;;;5017907;28;20454;-84
2023/08/19 02:11:54;;;;;;;6.20;5.60;;;22.00;99.90;;;;;;5018778;28;20445;-82
2023/08/19 02:14:21;;;;;;;8.53;6.00;;;21.90;99.90;;;;;;5018503;28;21029;-82
2023/08/19 02:16:49;;;;;;;7.23;6.53;;;21.90;99.90;;;;;;5018014;28;20857;-82
2023/08/19 02:19:16;;;;;;;10.57;6.43;;;21.90;99.90;;;;;;5017730;28;20464;-83
2023/08/19 02:21:43;;;;;;;7.17;5.47;;;21.90;99.90;;;;;;5018725;28;20458;-84
2023/08/19 02:24:09;;;;;;;7.10;5.73;;;21.90;99.90;;;;;;5019386;28;20974;-83
2023/08/19 02:26:36;;;;;;;6.47;5.53;;;21.90;99.90;;;;;;5017368;28;20935;-83
2023/08/19 02:29:03;;;;;;;6.13;5.53;;;21.80;99.90;;;;;;5018524;28;20476;-83
2023/08/19 02:31:30;;;;;;;9.07;5.57;;;21.80;99.90;;;;;;5018317;28;20472;-83
2023/08/19 02:33:58;;;;;;;6.03;5.43;;;21.80;99.90;;;;;;5017968;28;20490;-83
2023/08/19 02:36:25;;;;;;;5.83;5.23;;;21.80;99.90;;;;;;5018240;28;21027;-83
2023/08/19 02:38:52;;;;;;;5.70;5.17;;;21.80;99.90;;;;;;5017708;28;20806;-84
2023/08/19 02:41:19;;;;;;;5.70;4.93;;;21.80;99.90;;;;;;5034434;28;20453;-83
2023/08/19 02:43:45;;;;;;;6.53;4.70;;;21.70;99.90;;;;;;5038224;28;20516;-83
2023/08/19 02:46:12;;;;;;;6.50;5.90;;;21.70;99.90;;;;;;5036931;28;20507;-84
2023/08/19 02:48:39;;;;;;;6.37;5.10;;;21.70;99.90;;;;;;5037980;28;20448;-83
2023/08/19 02:51:07;;;;;;;6.13;5.40;;;21.70;99.90;;;;;;5037954;28;20444;-84
2023/08/19 02:53:35;;;;;;;5.47;4.93;;;21.60;99.90;;;;;;5037307;28;20488;-84
2023/08/19 02:56:05;;;;;;;7.80;5.10;;;21.60;99.90;;;;;;5036441;28;20477;-84
2023/08/19 02:58:32;;;;;;;6.57;5.23;;;21.60;99.90;;;;;;5017173;28;20989;-82
2023/08/19 03:00:58;;;;;;;5.23;4.73;;;21.60;99.90;;;;;;5035707;28;20808;-84
2023/08/19 03:03:27;;;;;;;5.90;5.03;;;21.60;99.90;;;;;;5038386;28;20449;-83
2023/08/19 03:05:58;;;;;;;6.13;4.80;;;21.60;99.90;;;;;;5038472;28;20872;-81
2023/08/19 03:08:27;;;;;;;8.33;5.10;;;21.50;99.90;;;;;;5037569;28;20500;-84
2023/08/19 03:10:53;;;;;;;7.43;5.80;;;21.50;99.90;;;;;;5038726;28;20448;-84
2023/08/19 03:13:20;;;;;;;7.20;4.97;;;21.50;99.90;;;;;;5049675;28;20544;-82
2023/08/19 03:15:47;;;;;;;5.53;5.03;;;21.50;99.90;;;;;;5050515;28;20460;-82
2023/08/19 03:18:14;;;;;;;6.13;4.90;;;21.50;99.90;;;;;;5046714;28;20469;-81
2023/08/19 03:20:42;;;;;;;5.73;5.00;;;21.50;99.90;;;;;;5048393;28;20838;-83
2023/08/19 03:23:09;;;;;;;6.63;4.50;;;21.50;99.90;;;;;;5029721;28;20464;-82
2023/08/19 03:25:37;;;;;;;7.40;5.53;;;21.50;99.90;;;;;;5018553;28;20448;-84
2023/08/19 03:28:04;;;;;;;5.37;4.87;;;21.50;99.90;;;;;;5017443;28;20452;-83
2023/08/19 03:30:31;;;;;;;8.60;5.90;;;21.50;99.90;;;;;;5017487;28;20448;-82
2023/08/19 03:32:58;;;;;;;5.60;5.00;;;21.40;99.90;;;;;;5022175;28;20507;-83
2023/08/19 03:35:24;;;;;;;6.93;4.70;;;21.40;99.90;;;;;;5022638;28;20450;-84
2023/08/19 03:37:51;;;;;;;7.17;4.83;;;21.40;99.90;;;;;;5022096;28;20473;-81
2023/08/19 03:40:18;;;;;;;5.10;4.60;;;21.40;99.90;;;;;;5022799;28;20548;-81
2023/08/19 03:42:46;;;;;;;7.17;4.90;;;21.40;99.90;;;;;;5021090;28;20541;-83
2023/08/19 03:45:13;;;;;;;7.30;5.03;;;21.40;99.90;;;;;;5020899;28;20452;-84
2023/08/19 03:47:39;;;;;;;5.43;4.50;;;21.40;99.90;;;;;;5021230;28;20479;-84
2023/08/19 03:50:07;;;;;;;5.40;4.87;;;21.40;99.90;;;;;;5021882;28;20528;-82
2023/08/19 03:52:34;;;;;;;6.13;4.37;;;21.30;99.90;;;;;;5021228;28;20333;-81
2023/08/19 03:55:00;;;;;;;7.90;5.00;;;21.30;99.90;;;;;;5021068;28;21009;-82
2023/08/19 03:57:27;;;;;;;5.67;4.43;;;21.30;99.90;;;;;;5021664;28;20481;-83
2023/08/19 03:59:55;;;;;;;5.27;4.53;;;21.30;99.90;;;;;;5020835;28;20454;-82
2023/08/19 04:02:22;;;;;;;4.97;4.40;;;21.30;99.90;;;;;;5020692;28;20807;-81
2023/08/19 04:05:00;;;;;;;5.63;4.23;;;21.30;99.90;;;;;;5020413;28;20445;-84
2023/08/19 04:07:27;;;;;;;6.73;5.70;;;21.30;99.90;;;;;;5020991;28;20469;-83
2023/08/19 04:09:54;;;;;;;4.67;3.93;;;21.30;99.90;;;;;;5038519;28;20548;-82
2023/08/19 04:12:21;;;;;;;5.53;5.03;;;21.30;99.90;;;;;;5040787;28;20460;-83
2023/08/19 04:14:48;;;;;;;6.33;4.10;;;21.30;99.90;;;;;;5023514;28;20481;-83
2023/08/19 04:17:16;;;;;;;5.80;4.40;;;21.30;99.90;;;;;;5019589;28;20478;-82
2023/08/19 04:19:43;;;;;;;5.20;4.70;;;21.30;99.90;;;;;;5021152;28;20450;-83
2023/08/19 04:22:12;;;;;;;6.43;4.40;;;21.30;99.90;;;;;;5021308;28;20455;-85
2023/08/19 04:24:39;;;;;;;9.00;4.90;;;21.30;99.90;;;;;;5020729;28;20444;-85
2023/08/19 04:27:06;;;;;;;7.07;5.20;;;21.30;99.90;;;;;;5019509;28;20474;-83
2023/08/19 04:29:33;;;;;;;5.20;4.70;;;21.40;99.90;;;;;;5020512;28;20541;-84
2023/08/19 04:32:01;;;;;;;5.50;4.83;;;21.40;99.90;;;;;;5020946;28;20456;-83
2023/08/19 04:34:29;;;;;;;5.00;4.50;;;21.40;99.90;;;;;;5021043;28;20499;-85
2023/08/19 04:36:56;;;;;;;8.37;4.23;;;21.40;99.90;;;;;;5019627;28;20528;-84
2023/08/19 04:39:23;;;;;;;5.00;4.33;;;21.40;99.90;;;;;;5019682;28;20445;-84
2023/08/19 04:41:50;;;;;;;7.80;4.87;;;21.40;99.90;;;;;;5019705;28;20450;-85
2023/08/19 04:44:17;;;;;;;6.13;4.30;;;21.40;99.90;;;;;;5021836;28;20457;-82
2023/08/19 04:46:44;;;;;;;4.90;4.40;;;21.50;99.90;;;;;;5036312;28;20871;-84
2023/08/19 04:49:11;;;;;;;6.30;4.83;;;21.50;99.90;;;;;;5029219;28;20491;-85
2023/08/19 04:51:39;;;;;;;5.03;4.00;;;21.50;99.90;;;;;;5040005;28;20476;-83
2023/08/19 04:54:07;;;;;;;5.33;4.40;;;21.50;99.90;;;;;;5039923;28;20487;-84
2023/08/19 04:56:34;;;;;;;4.43;4.03;;;21.50;99.90;;;;;;5039682;28;20495;-83
2023/08/19 04:59:01;;;;;;;7.37;4.67;;;21.50;99.90;;;;;;5043884;28;20448;-84
2023/08/19 05:01:28;;;;;;;5.53;4.37;;;21.60;99.90;;;;;;5030807;28;20450;-85
2023/08/19 05:03:54;;;;;;;5.30;4.80;;;21.60;99.90;;;;;;5041546;28;20536;-84
2023/08/19 05:06:22;;;;;;;5.10;4.17;;;21.60;99.90;;;;;;5042004;28;20476;-85
2023/08/19 05:08:50;;;;;;;5.57;4.00;;;21.60;99.90;;;;;;5042368;28;20473;-85
2023/08/19 05:11:17;;;;;;;7.00;4.70;;;21.60;99.90;;;;;;5042872;28;20471;-84
2023/08/19 05:13:44;;;;;;;5.10;3.90;;;21.70;99.90;;;;;;5043084;28;20480;-84
2023/08/19 05:16:11;;;;;;;6.70;4.27;;;21.70;99.90;;;;;;5042755;28;20496;-85
2023/08/19 05:18:38;;;;;;;5.07;4.07;;;21.70;99.90;;;;;;5044634;28;20452;-82
2023/08/19 05:21:05;;;;;;;4.43;4.00;;;21.80;99.90;;;;;;5043372;28;20452;-84
2023/08/19 05:23:32;;;;;;;4.93;4.10;;;21.80;99.90;;;;;;5042445;28;20468;-85
2023/08/19 05:26:00;;;;;;;6.33;3.80;;;21.90;99.90;;;;;;5040069;28;20465;-86
2023/08/19 05:28:27;;;;;;;6.40;4.00;;;22.00;99.90;;;;;;5020753;28;20450;-83
2023/08/19 05:30:54;;;;;;;6.60;4.50;;;22.00;99.90;;;;;;5019936;28;20553;-83
2023/08/19 05:33:21;;;;;;;8.07;4.30;;;22.10;99.90;;;;;;5020377;28;20446;-82
2023/08/19 05:35:48;;;;;;;6.20;3.97;;;22.10;99.90;;;;;;5022468;28;20497;-84
2023/08/19 05:38:15;;;;;;;9.50;4.10;;;22.20;99.90;;;;;;5039622;28;21083;-83
2023/08/19 05:40:42;;;;;;;6.63;4.37;;;22.30;99.90;;;;;;5039102;28;20525;-83
2023/08/19 05:43:10;;;;;;;4.73;4.30;;;22.40;99.90;;;;;;5031259;28;20549;-83
2023/08/19 05:45:37;;;;;;;7.87;5.07;;;22.40;99.90;;;;;;5020177;28;20484;-84
2023/08/19 05:48:04;;;;;;;5.40;4.00;;;22.40;99.90;;;;;;5031536;28;20480;-83
2023/08/19 05:50:31;;;;;;;6.47;3.90;;;22.50;99.90;;;;;;5041950;28;20821;-84
2023/08/19 05:52:58;;;;;;;6.67;4.30;;;22.60;99.90;;;;;;5025594;28;20556;-84
2023/08/19 05:55:25;;;;;;;4.43;4.00;;;22.60;99.90;;;;;;5023630;28;20569;-84
2023/08/19 05:57:51;;;;;;;5.60;3.50;;;22.70;99.90;;;;;;5040932;28;20473;-84
2023/08/19 06:00:22;;;;;;;4.43;3.83;;;22.70;99.90;;;;;;5039927;28;20448;-84
2023/08/19 06:02:48;;;;;;;5.00;3.40;;;22.80;99.90;;;;;;5039625;28;20456;-84
2023/08/19 06:05:15;;;;;;;4.87;3.83;;;22.80;99.90;;;;;;5038271;28;20440;-83
2023/08/19 06:07:42;;;;;;;5.03;3.63;;;22.90;99.90;;;;;;5038515;28;20472;-84
2023/08/19 06:10:10;;;;;;;4.47;3.53;;;22.90;99.90;;;;;;5038577;28;20543;-84
2023/08/19 06:12:36;;;;;;;4.80;3.33;;;23.00;99.90;;;;;;5037726;28;20520;-84
2023/08/19 06:15:04;;;;;;;4.27;3.23;;;23.00;99.90;;;;;;5037837;28;20480;-83
2023/08/19 06:17:32;;;;;;;4.13;3.40;;;23.00;99.90;;;;;;5037397;28;20476;-83
2023/08/19 06:19:59;;;;;;;10.13;3.80;;;23.10;99.90;;;;;;5038900;28;20453;-83
2023/08/19 06:22:25;;;;;;;5.10;3.53;;;23.10;99.90;;;;;;5038528;28;20447;-83
2023/08/19 06:24:52;;;;;;;4.53;3.50;;;23.10;99.90;;;;;;5038393;28;20436;-82
2023/08/19 06:27:19;;;;;;;5.50;3.60;;;23.10;99.90;;;;;;5036781;28;20471;-84
2023/08/19 06:29:46;;;;;;;5.50;3.40;;;23.20;99.90;;;;;;5037806;28;20445;-84
2023/08/19 06:32:13;;;;;;;4.57;3.47;;;23.20;99.90;;;;;;5036990;28;20441;-84
2023/08/19 06:34:42;;;;;;;4.10;3.70;;;23.20;99.90;;;;;;5037483;28;21069;-83
2023/08/19 06:37:14;;;;;;;5.30;3.40;;;23.20;99.90;;;;;;5040938;28;20477;-83
2023/08/19 06:39:47;;;;;;;5.33;2.83;;;23.30;99.90;;;;;;5043076;28;20453;-82
2023/08/19 06:42:15;;;;;;;5.73;4.03;;;23.30;99.90;;;;;;5043207;28;20517;-82
2023/08/19 06:44:43;;;;;;;4.30;3.47;;;23.30;99.90;;;;;;5034152;28;20521;-82
2023/08/19 06:47:10;;;;;;;3.87;3.30;;;23.30;99.90;;;;;;5022626;28;20478;-83
2023/08/19 06:49:38;;;;;;;4.00;3.50;;;23.40;99.90;;;;;;5019383;28;20545;-82
2023/08/19 06:52:07;;;;;;;3.83;3.30;;;23.50;99.90;;;;;;5018748;28;20880;-83
2023/08/19 06:54:34;;;;;;;6.30;3.23;;;23.50;99.90;;;;;;5017815;28;20500;-81
2023/08/19 06:57:06;;;;;;;3.90;3.17;;;23.60;99.90;;;;;;5028174;28;20476;-82
2023/08/19 06:59:37;;;;;;;6.60;3.87;;;23.60;99.90;;;;;;5035907;28;20452;-82
2023/08/19 07:02:07;;;;;;;4.43;3.17;;;23.70;99.90;;;;;;5037968;28;20503;-81
2023/08/19 07:04:35;;;;;;;3.67;3.33;;;23.70;99.90;;;;;;5020721;28;20458;-82
2023/08/19 07:07:04;;;;;;;3.87;3.10;;;23.70;99.90;;;;;;5018068;28;20477;-82
2023/08/19 07:09:34;;;;;;;4.13;2.93;;;23.70;99.90;;;;;;5036136;28;20847;-81
2023/08/19 07:12:02;;;;;;;6.07;2.80;;;23.80;99.90;;;;;;5033361;28;20467;-81
2023/08/19 07:14:29;;;;;;;4.27;3.17;;;23.80;99.90;;;;;;5034516;28;20487;-81
2023/08/19 07:17:00;;;;;;;5.77;3.53;;;23.90;99.90;;;;;;5041157;23;20512;-84
2023/08/19 07:19:31;;;;;;;6.57;3.57;;;23.90;99.90;;;;;;5011101;28;20540;-84
2023/08/19 07:21:58;;;;;;;5.50;3.53;;;23.90;99.90;;;;;;5016428;28;20442;-82
2023/08/19 07:24:26;;;;;;;4.60;3.30;;;23.90;99.90;;;;;;5003254;28;20946;-82
2023/08/19 07:26:54;;;;;;;6.00;3.60;;;24.00;99.90;;;;;;5005625;28;20470;-83
2023/08/19 07:29:21;;;;;;;8.00;3.67;;;24.10;99.90;;;;;;5010966;28;20529;-83
2023/08/19 07:31:49;;;;;;;5.03;3.20;;;24.10;99.90;;;;;;5011186;28;20454;-82
2023/08/19 07:34:15;;;;;;;3.07;2.63;;;24.10;99.90;;;;;;5010064;28;20465;-83
2023/08/19 07:36:43;;;;;;;4.10;3.53;;;24.10;99.90;;;;;;5020628;28;20860;-82
2023/08/19 07:39:10;;;;;;;4.30;3.10;;;24.10;99.90;;;;;;5035289;28;20495;-83
2023/08/19 07:41:37;;;;;;;4.60;3.47;;;24.20;99.90;;;;;;5002436;28;20455;-82
2023/08/19 07:44:06;;;;;;;4.60;3.80;;;24.20;99.90;;;;;;4996266;28;20451;-83
2023/08/19 07:46:33;;;;;;;4.30;2.80;;;24.20;99.90;;;;;;5007110;28;20442;-82
2023/08/19 07:49:00;;;;;;;4.40;3.67;;;24.20;99.90;;;;;;5014230;28;20463;-83
2023/08/19 07:51:26;;;;;;;8.87;5.77;;;24.20;99.90;;;;;;5014509;28;20454;-82
2023/08/19 07:53:53;;;;;;;6.57;3.80;;;24.20;99.90;;;;;;4997251;28;20450;-82
2023/08/19 07:56:20;;;;;;;6.90;3.80;;;24.20;99.90;;;;;;5012297;28;20509;-83
2023/08/19 07:58:47;;;;;;;6.97;3.17;;;24.20;99.90;;;;;;5004358;28;20465;-82
2023/08/19 08:01:15;;;;;;;3.70;3.07;;;24.20;99.90;;;;;;5014885;28;20457;-82
2023/08/19 08:03:42;;;;;;;3.83;3.30;;;24.20;99.90;;;;;;5011014;28;20462;-82
2023/08/19 08:06:10;;;;;;;5.27;3.83;;;24.30;99.90;;;;;;5014536;28;20454;-83
2023/08/19 08:08:37;;;;;;;5.20;3.77;;;24.20;99.90;;;;;;5015705;28;20477;-81
2023/08/19 08:11:04;;;;;;;5.30;3.50;;;24.30;99.90;;;;;;5016073;28;20453;-82
2023/08/19 08:13:31;;;;;;;3.50;3.20;;;24.20;99.90;;;;;;5010150;28;20542;-82
2023/08/19 08:15:59;;;;;;;4.03;3.13;;;24.30;99.90;;;;;;5014172;28;21219;-81
2023/08/19 08:18:27;;;;;;;4.40;3.73;;;24.30;99.90;;;;;;5010866;28;20481;-82
2023/08/19 08:20:54;;;;;;;5.80;3.70;;;24.30;99.90;;;;;;5015374;28;20469;-81
2023/08/19 08:23:21;;;;;;;5.03;4.23;;;24.40;99.90;;;;;;5017663;28;20526;-82
2023/08/19 08:25:48;;;;;;;5.00;3.90;;;24.40;99.90;;;;;;4999867;28;20442;-82
2023/08/19 08:28:14;;;;;;;8.10;4.63;;;24.40;99.90;;;;;;5006244;28;20471;-81
2023/08/19 08:30:41;;;;;;;5.97;4.00;;;24.50;99.90;;;;;;5018454;28;20458;-83
2023/08/19 08:33:09;;;;;;;7.37;3.60;;;24.60;99.90;;;;;;5018592;28;20480;-81
2023/08/19 08:35:37;;;;;;;6.90;5.00;;;24.60;99.90;;;;;;5018551;28;20500;-82
2023/08/19 08:38:04;;;;;;;5.07;4.10;;;24.60;99.90;;;;;;5017574;28;20564;-82
2023/08/19 08:40:31;;;;;;;4.73;4.00;;;24.70;99.90;;;;;;5011648;28;20835;-82
2023/08/19 08:42:59;;;;;;;7.33;4.07;;;24.80;99.90;;;;;;5004192;28;20449;-82
2023/08/19 08:45:28;;;;;;;5.70;4.33;;;25.00;99.90;;;;;;5023844;28;20513;-81
2023/08/19 08:47:55;;;;;;;8.23;4.43;;;25.20;99.90;;;;;;5017762;28;20483;-81
2023/08/19 08:50:23;;;;;;;3.97;3.57;;;25.40;99.90;;;;;;5018009;28;20518;-82
2023/08/19 08:52:52;;;;;;;4.60;3.33;;;25.60;99.90;;;;;;5015009;28;20457;-81
2023/08/19 08:55:19;;;;;;;6.23;4.13;;;25.80;99.90;;;;;;5007610;28;20573;-82
2023/08/19 08:57:46;;;;;;;4.80;3.30;;;26.00;99.90;;;;;;5010868;28;20470;-83
2023/08/19 09:00:14;;;;;;;6.40;3.97;;;26.40;99.90;;;;;;5019846;28;20840;-80
2023/08/19 09:02:41;;;;;;;5.67;3.93;;;26.60;99.90;;;;;;5017723;28;20504;-82
2023/08/19 09:05:09;;;;;;;3.70;3.23;;;26.90;79.00;;;;;;5017281;28;21002;-82
2023/08/19 09:07:39;;;;;;;4.90;3.50;;;27.10;81.90;;;;;;5007495;28;20594;-82
2023/08/19 09:10:12;;;;;;;4.93;3.50;;;27.30;99.90;;;;;;4998559;28;20534;-82
2023/08/19 09:12:41;;;;;;;3.53;3.23;;;27.30;99.90;;;;;;4997942;28;20455;-81
2023/08/19 09:15:10;;;;;;;4.03;3.10;;;27.30;99.90;;;;;;4998023;28;20486;-82
2023/08/19 09:17:38;;;;;;;4.10;3.37;;;27.30;99.90;;;;;;4998870;28;20573;-82
2023/08/19 09:20:07;;;;;;;3.43;3.13;;;27.20;99.90;;;;;;5007241;28;20467;-82
2023/08/19 09:22:33;;;;;;;3.57;3.17;;;27.20;99.90;;;;;;5018101;28;20453;-81
2023/08/19 09:25:05;;;;;;;4.00;3.60;;;27.20;99.90;;;;;;5017907;28;20456;-81
2023/08/19 09:27:34;;;;;;;5.40;3.80;;;27.10;99.90;;;;;;5017882;28;20556;-82
2023/08/19 09:30:00;;;;;;;10.73;4.10;;;27.10;99.90;;;;;;5018113;28;20446;-82
2023/08/19 09:32:29;;;;;;;4.80;3.63;;;27.10;99.90;;;;;;5018061;28;20485;-82
2023/08/19 09:35:04;;;;;;;4.50;4.07;;;27.10;99.90;;;;;;5017521;28;20473;-82
2023/08/19 09:37:32;;;;;;;4.43;4.03;;;27.20;99.90;;;;;;5017905;28;20552;-82
2023/08/19 09:39:59;;;;;;;5.40;4.57;;;27.30;99.90;;;;;;5018134;28;20517;-82
2023/08/19 09:42:27;;;;;;;8.43;4.47;;;27.40;99.90;;;;;;5017739;28;20445;-82
2023/08/19 09:44:55;;;;;;;4.30;3.87;;;27.40;99.90;;;;;;5018034;28;20456;-82
2023/08/19 09:47:23;;;;;;;4.20;3.07;;;27.40;99.90;;;;;;5017774;28;20469;-82
2023/08/19 09:49:53;;;;;;;7.00;4.13;;;27.40;85.90;;;;;;5018003;28;20448;-82
2023/08/19 09:52:20;;;;;;;5.00;3.77;;;27.40;99.90;;;;;;5018268;28;20530;-82
2023/08/19 09:54:52;;;;;;;5.13;4.13;;;27.50;99.90;;;;;;5017925;28;20454;-83
2023/08/19 09:57:19;;;;;;;6.60;4.20;;;27.50;99.90;;;;;;5017771;28;20462;-82
2023/08/19 09:59:46;;;;;;;6.93;3.93;;;27.50;22.10;;;;;;5018053;28;20452;-83
2023/08/19 10:02:17;;;;;;;4.90;3.37;;;27.60;1.00;;;;;;5018082;28;20528;-83
2023/08/19 10:04:43;;;;;;;5.40;3.50;;;27.60;1.00;;;;;;5017476;28;20497;-82
2023/08/19 10:07:13;;;;;;;5.53;3.63;;;27.80;36.20;;;;;;5016819;28;20464;-82
2023/08/19 10:09:41;;;;;;;4.70;4.30;;;28.00;1.00;;;;;;5017622;28;20837;-83
2023/08/19 10:12:11;;;;;;;4.60;4.07;;;28.00;76.80;;;;;;5017234;28;20450;-83
2023/08/19 10:14:41;;;;;;;4.73;3.53;;;28.10;45.50;;;;;;5015648;28;20454;-83
2023/08/19 10:17:08;;;;;;;5.97;4.10;;;28.10;1.00;;;;;;5015924;28;20548;-83
2023/08/19 10:19:40;;;;;;;4.30;3.87;;;28.20;43.70;;;;;;5019912;28;20521;-83
2023/08/19 10:22:09;;;;;;;5.13;4.63;;;28.20;99.90;;;;;;5016895;28;20474;-83
2023/08/19 10:24:36;;;;;;;5.30;4.90;;;28.20;47.60;;;;;;5005458;28;20468;-83
2023/08/19 10:27:03;;;;;;;4.17;3.73;;;28.20;1.00;;;;;;5014564;28;20461;-82
2023/08/19 10:29:30;;;;;;;6.73;4.10;;;28.10;1.00;;;;;;5015255;28;21112;-82
2023/08/19 10:31:57;;;;;;;5.10;4.50;;;28.10;1.00;;;;;;5016060;28;20449;-82
2023/08/19 10:34:26;;;;;;;8.10;4.40;;;28.10;92.70;;;;;;5015772;28;20879;-83
2023/08/19 10:37:07;;;;;;;7.60;4.97;;;28.10;1.00;;;;;;5016178;28;20501;-83
2023/08/19 10:39:35;;;;;;;7.47;4.80;;;28.20;99.90;;;;;;5015220;28;20458;-83
2023/08/19 10:42:02;;;;;;;4.83;4.33;;;28.20;1.00;;;;;;5009296;28;20465;-82
2023/08/19 10:44:33;;;;;;;4.40;4.00;;;28.40;1.00;;;;;;4999009;28;20457;-83
2023/08/19 10:47:09;;;;;;;7.67;4.50;;;28.50;99.90;;;;;;5012866;28;20469;-81
2023/08/19 10:49:36;;;;;;;6.13;3.93;;;28.60;1.00;;;;;;5015590;28;20460;-82
2023/08/19 10:52:05;;;;;;;5.23;4.73;;;28.60;99.90;;;;;;5016356;28;20453;-82
2023/08/19 10:54:38;;;;;;;8.40;4.83;;;28.70;1.00;;;;;;5008107;28;20490;-81
2023/08/19 10:57:10;;;;;;;6.30;4.20;;;28.70;48.10;;;;;;4996509;28;20497;-82
2023/08/19 10:59:38;;;;;;;7.30;4.10;;;28.70;1.00;;;;;;5001871;28;20552;-81
2023/08/19 11:02:05;;;;;;;7.23;4.43;;;28.70;99.90;;;;;;5015507;28;20513;-81
2023/08/19 11:04:32;;;;;;;6.17;4.20;;;28.70;99.90;;;;;;5015702;28;20445;-81
2023/08/19 11:06:59;;;;;;;5.33;4.60;;;28.80;1.00;;;;;;5014869;28;20495;-82
2023/08/19 11:09:26;;;;;;;7.43;4.47;;;28.80;1.00;;;;;;5009896;28;20907;-82
2023/08/19 11:11:55;;;;;;;5.73;4.40;;;28.80;1.00;;;;;;4996359;28;20443;-81
2023/08/19 11:14:23;;;;;;;5.60;4.70;;;28.80;1.00;;;;;;4996304;28;20451;-81
2023/08/19 11:16:50;;;;;;;7.10;4.70;;;28.70;1.00;;;;;;4996150;28;20573;-82
2023/08/19 11:19:18;;;;;;;6.23;4.87;;;28.80;1.00;;;;;;4996524;28;20891;-81
2023/08/19 11:21:45;;;;;;;5.97;5.40;;;28.90;40.00;;;;;;4996310;28;20472;-83
2023/08/19 11:24:12;;;;;;;7.47;6.33;;;28.90;7.30;;;;;;4997777;28;20454;-82
2023/08/19 11:26:40;;;;;;;7.30;6.60;;;28.80;1.00;;;;;;4996065;28;20917;-82
2023/08/19 11:29:09;;;;;;;12.17;10.97;;;28.80;9.90;;;;;;5014045;28;20468;-81
2023/08/19 11:31:36;;;;;;;12.60;11.40;;;28.70;16.70;;;;;;5015039;28;20544;-81
2023/08/19 11:34:07;;;;;;;14.83;13.17;;;28.60;48.50;;;;;;5015730;28;20460;-82
2023/08/19 11:36:35;;;;;;;10.50;9.43;;;28.50;74.10;;;;;;5015556;28;20500;-82
2023/08/19 11:39:02;;;;;;;14.40;12.40;;;28.30;16.70;;;;;;5014770;28;20458;-83
2023/08/19 11:41:29;;;;;;;9.03;6.87;;;28.20;61.50;;;;;;5015553;28;20457;-82
2023/08/19 11:43:57;;;;;;;15.40;13.80;;;27.90;1.00;;;;;;5014090;28;20469;-81
2023/08/19 11:46:28;;;;;;;9.93;6.60;;;27.80;1.00;;;;;;5015066;28;20460;-82
2023/08/19 11:48:55;;;;;;;11.23;8.40;;;27.50;1.00;;;;;;5010967;28;20451;-82
2023/08/19 11:51:22;;;;;;;10.30;8.83;;;27.50;47.90;;;;;;5014697;28;20536;-82
2023/08/19 11:53:50;;;;;;;9.73;8.23;;;27.40;99.90;;;;;;5018689;28;20921;-81
2023/08/19 11:56:17;;;;;;;11.40;7.80;;;27.20;48.30;;;;;;5018951;28;20868;-81
2023/08/19 11:58:48;;;;;;;9.90;8.87;;;27.20;99.90;;;;;;5019450;28;20445;-81
2023/08/19 12:01:15;;;;;;;13.50;9.07;;;27.00;99.90;;;;;;5020453;28;20873;-83
2023/08/19 12:03:45;;;;;;;11.03;9.90;;;26.90;99.90;;;;;;5018686;28;20556;-82
2023/08/19 12:06:12;;;;;;;9.40;8.50;;;26.80;99.90;;;;;;5013013;28;20508;-83
2023/08/19 12:08:41;;;;;;;14.77;10.70;;;26.60;99.90;;;;;;5008366;28;20478;-82
2023/08/19 12:11:08;;;;;;;9.30;8.17;;;26.50;99.90;;;;;;5018369;28;20799;-82
2023/08/19 12:13:35;;;;;;;11.70;9.90;;;26.40;99.90;;;;;;5018470;28;20447;-83
2023/08/19 12:16:02;;;;;;;11.60;9.73;;;26.50;99.90;;;;;;5019443;28;20488;-83
2023/08/19 12:18:32;;;;;;;11.80;10.80;;;26.50;99.90;;;;;;5016037;28;21020;-82
2023/08/19 12:21:01;;;;;;;13.33;11.93;;;26.70;99.90;;;;;;5019173;28;20450;-83
2023/08/19 12:23:28;;;;;;;11.50;8.00;;;27.00;99.90;;;;;;5019736;28;20457;-82
2023/08/19 12:25:56;;;;;;;12.10;10.07;;;27.20;99.90;;;;;;5013307;28;20454;-83
2023/08/19 12:28:24;;;;;;;12.30;11.00;;;27.40;99.90;;;;;;4999945;28;20553;-83
2023/08/19 12:30:51;;;;;;;8.70;7.40;;;27.70;99.90;;;;;;5012194;28;20490;-82
2023/08/19 12:33:19;;;;;;;16.67;13.07;;;28.00;99.90;;;;;;5033600;28;20493;-82
2023/08/19 12:35:46;;;;;;;12.10;10.90;;;28.30;99.90;;;;;;5035653;28;20518;-84
2023/08/19 12:38:16;;;;;;;13.00;11.57;;;28.30;99.90;;;;;;5035034;28;20461;-82
2023/08/19 12:40:43;;;;;;;15.50;12.50;;;28.30;99.90;;;;;;5028335;28;20469;-84
2023/08/19 12:43:12;;;;;;;13.30;12.00;;;28.10;99.90;;;;;;5022663;28;20513;-83
2023/08/19 12:45:39;;;;;;;13.03;10.57;;;28.10;99.90;;;;;;5020816;28;20445;-83
2023/08/19 12:48:07;;;;;;;10.90;9.80;;;28.10;99.90;;;;;;5020759;28;20525;-83